Time;durP1;ratioP1;P1;durP2;ratioP2;P2;SDS_P1;SDS_P2;PMS_P1;PMS_P2;Temp;Humidity;BMP_temperature;BMP_pressure;BME280_temperature;BME280_humidity;BME280_pressure;Samples;Min_cycle;Max_cycle;Signal;HPM_P1;HPM_P2
2023/10/17 00:01:32;;;;;;;8.85;3.90;;;;;;;5.97;100.00;101969.84;5069344;28;20654;-50
2023/10/17 00:04:09;;;;;;;6.75;3.58;;;;;;;6.03;100.00;101972.34;5068889;28;20605;-49
2023/10/17 00:06:38;;;;;;;8.95;3.47;;;;;;;6.01;100.00;101969.78;5070674;28;20581;-48
2023/10/17 00:09:10;;;;;;;10.68;4.15;;;;;;;6.00;100.00;101969.78;5072487;28;20048;-48
2023/10/17 00:11:51;;;;;;;10.40;3.80;;;;;;;6.01;100.00;101966.28;5072224;28;20048;-48
2023/10/17 00:14:19;;;;;;;9.63;3.85;;;;;;;6.08;100.00;101957.38;5072238;28;20105;-47
2023/10/17 00:16:47;;;;;;;10.35;3.28;;;;;;;6.08;100.00;101957.38;5072300;28;20072;-46
2023/10/17 00:19:16;;;;;;;10.63;4.28;;;;;;;6.10;100.00;101955.59;5071025;28;20052;-49
2023/10/17 00:21:45;;;;;;;7.65;3.60;;;;;;;6.13;100.00;101955.47;5072239;28;20094;-46
2023/10/17 00:24:14;;;;;;;12.13;3.92;;;;;;;6.11;100.00;101962.53;5072107;28;20078;-49
2023/10/17 00:26:43;;;;;;;9.52;3.70;;;;;;;6.13;100.00;101955.47;5072267;28;20044;-48
2023/10/17 00:29:11;;;;;;;7.35;3.72;;;;;;;6.15;100.00;101960.66;5072282;28;20071;-48
2023/10/17 00:31:41;;;;;;;7.88;3.88;;;;;;;6.14;100.00;101958.97;5071968;28;20047;-49
2023/10/17 00:34:21;;;;;;;8.88;3.88;;;;;;;6.20;100.00;101969.22;5072132;28;20064;-47
2023/10/17 00:36:49;;;;;;;8.73;3.80;;;;;;;6.19;100.00;101959.66;5072157;28;20418;-46
2023/10/17 00:39:30;;;;;;;14.38;4.22;;;;;;;6.18;100.00;101952.75;5071227;28;20055;-47
2023/10/17 00:42:27;;;;;;;9.15;4.10;;;;;;;6.19;100.00;101944.00;5066848;28;20171;-48
2023/10/17 00:44:56;;;;;;;9.02;4.03;;;;;;;6.19;100.00;101944.88;5070184;28;20556;-51
2023/10/17 00:47:26;;;;;;;10.30;3.83;;;;;;;6.32;100.00;101949.72;5071741;28;20057;-49
2023/10/17 00:49:55;;;;;;;10.63;4.20;;;;;;;6.28;100.00;101942.88;5071511;28;20098;-49
2023/10/17 00:52:29;;;;;;;9.98;4.38;;;;;;;6.29;100.00;101939.38;5071339;28;20075;-47
2023/10/17 00:54:59;;;;;;;10.93;4.35;;;;;;;6.25;100.00;101939.44;5071985;28;20125;-50
2023/10/17 00:57:27;;;;;;;9.52;4.35;;;;;;;6.25;100.00;101939.44;5067011;28;20086;-48
2023/10/17 00:59:56;;;;;;;8.27;4.35;;;;;;;6.19;100.00;101928.31;5067204;28;20045;-49
2023/10/17 01:02:29;;;;;;;8.85;3.97;;;;;;;6.20;100.00;101923.09;5071470;28;20048;-49
2023/10/17 01:04:59;;;;;;;9.90;4.15;;;;;;;6.21;100.00;101931.75;5071676;28;20053;-48
2023/10/17 01:07:29;;;;;;;10.18;4.32;;;;;;;6.20;100.00;101923.09;5070211;28;20052;-50
2023/10/17 01:10:09;;;;;;;7.90;3.90;;;;;;;6.23;100.00;101925.59;5071584;28;20137;-48
2023/10/17 01:12:45;;;;;;;9.23;3.80;;;;;;;6.23;100.00;101928.22;5071344;28;20532;-48
2023/10/17 01:15:19;;;;;;;9.45;4.55;;;;;;;6.34;100.00;101932.25;5068069;28;20041;-46
2023/10/17 01:17:48;;;;;;;8.25;3.80;;;;;;;6.32;100.00;101926.22;5070231;28;20539;-50
2023/10/17 01:20:19;;;;;;;12.63;4.03;;;;;;;6.30;100.00;101922.78;5068784;28;20062;-51
2023/10/17 01:22:47;;;;;;;8.55;4.10;;;;;;;6.33;100.00;101915.72;5067854;28;20132;-49
2023/10/17 01:25:24;;;;;;;8.63;3.90;;;;;;;6.34;100.00;101914.81;5067962;28;20526;-48
2023/10/17 01:27:54;;;;;;;11.23;4.28;;;;;;;6.35;100.00;101915.66;5068709;28;20418;-47
2023/10/17 01:30:23;;;;;;;10.05;4.28;;;;;;;6.34;100.00;101916.56;5071358;28;20430;-48
2023/10/17 01:32:51;;;;;;;8.98;4.35;;;;;;;6.31;100.00;101914.91;5068383;28;20041;-48
2023/10/17 01:35:20;;;;;;;8.93;4.32;;;;;;;6.32;100.00;101918.38;5068375;28;20048;-48
2023/10/17 01:37:48;;;;;;;10.35;4.40;;;;;;;6.32;100.00;101918.38;5071365;28;20072;-49
2023/10/17 01:40:22;;;;;;;8.25;4.38;;;;;;;6.32;100.00;101919.22;5069015;28;20053;-48
2023/10/17 01:42:51;;;;;;;13.48;4.57;;;;;;;6.35;100.00;101911.28;5066322;28;20123;-48
2023/10/17 01:45:23;;;;;;;10.65;4.45;;;;;;;6.34;100.00;101908.72;5070285;28;20072;-48
2023/10/17 01:47:52;;;;;;;8.65;4.32;;;;;;;6.34;100.00;101914.81;5067279;28;20115;-46
2023/10/17 01:50:20;;;;;;;9.90;4.57;;;;;;;6.37;100.00;101911.28;5067131;28;20052;-48
2023/10/17 01:52:52;;;;;;;10.73;4.53;;;;;;;6.34;100.00;101916.56;5070731;28;20111;-46
2023/10/17 01:55:24;;;;;;;10.95;4.80;;;;;;;6.34;100.00;101906.97;5071044;28;20450;-48
2023/10/17 01:57:57;;;;;;;8.80;4.63;;;;;;;6.38;100.00;101903.38;5074468;28;20045;-46
2023/10/17 02:00:36;;;;;;;8.10;4.68;;;;;;;6.40;100.00;101905.94;5074802;28;20123;-47
2023/10/17 02:03:05;;;;;;;10.32;4.53;;;;;;;6.39;100.00;101905.09;5073733;28;20519;-47
2023/10/17 02:05:34;;;;;;;9.27;4.38;;;;;;;6.39;100.00;101912.94;5071350;28;20538;-46
2023/10/17 02:08:05;;;;;;;9.98;4.90;;;;;;;6.35;100.00;101918.28;5071024;28;20100;-47
2023/10/17 02:10:34;;;;;;;10.05;5.00;;;;;;;6.34;100.00;101906.13;5070476;28;20051;-48
2023/10/17 02:13:04;;;;;;;9.25;4.50;;;;;;;6.34;100.00;101916.56;5074574;28;20054;-48
2023/10/17 02:15:34;;;;;;;11.05;4.82;;;;;;;6.33;100.00;101900.03;5074327;28;20055;-45
2023/10/17 02:18:12;;;;;;;11.07;4.78;;;;;;;6.36;100.00;101901.72;5072510;28;20507;-47
2023/10/17 02:20:47;;;;;;;9.63;4.55;;;;;;;6.35;100.00;101900.00;5070892;28;20533;-47
2023/10/17 02:23:19;;;;;;;9.70;4.75;;;;;;;6.35;100.00;101910.44;5071571;28;20044;-47
2023/10/17 02:25:50;;;;;;;10.57;4.97;;;;;;;6.33;100.00;101901.81;5070219;28;20158;-48
2023/10/17 02:28:18;;;;;;;8.30;4.60;;;;;;;6.31;100.00;101894.00;5070774;28;20797;-46
2023/10/17 02:30:46;;;;;;;8.70;4.28;;;;;;;6.33;100.00;101904.44;5070353;28;20032;-47
2023/10/17 02:33:17;;;;;;;11.18;4.80;;;;;;;6.35;100.00;101892.16;5069576;28;20139;-46
2023/10/17 02:36:04;;;;;;;11.80;4.57;;;;;;;6.32;100.00;101893.09;5073598;28;20056;-46
2023/10/17 02:38:32;;;;;;;9.65;4.93;;;;;;;6.30;100.00;101886.19;5070057;28;20483;-47
2023/10/17 02:41:02;;;;;;;8.95;4.90;;;;;;;6.31;100.00;101887.94;5069307;28;20434;-46
2023/10/17 02:43:30;;;;;;;11.43;5.15;;;;;;;6.26;100.00;101882.84;5073116;28;20071;-45
2023/10/17 02:46:04;;;;;;;8.70;4.85;;;;;;;6.32;100.00;101887.03;5071023;28;20068;-47
2023/10/17 02:48:38;;;;;;;10.70;5.20;;;;;;;6.28;100.00;101880.19;5071254;28;20474;-45
2023/10/17 02:51:11;;;;;;;10.27;4.97;;;;;;;6.25;100.00;101886.34;5072263;28;20041;-46
2023/10/17 02:53:43;;;;;;;10.98;5.07;;;;;;;6.24;100.00;101890.75;5070512;28;20458;-45
2023/10/17 02:56:21;;;;;;;8.43;4.63;;;;;;;6.25;100.00;101883.75;5069230;28;20056;-47
2023/10/17 02:58:59;;;;;;;8.55;4.97;;;;;;;6.18;100.00;101890.06;5070021;28;20059;-46
2023/10/17 03:01:27;;;;;;;8.63;4.97;;;;;;;6.18;100.00;101893.53;5070831;28;20049;-45
2023/10/17 03:03:59;;;;;;;12.98;5.97;;;;;;;6.14;100.00;101894.50;5068947;28;20136;-46
2023/10/17 03:06:27;;;;;;;9.38;5.53;;;;;;;6.19;100.00;101895.25;5070187;28;20507;-48
2023/10/17 03:09:14;;;;;;;9.35;5.32;;;;;;;6.14;100.00;101897.13;5068945;28;20055;-47
2023/10/17 03:11:51;;;;;;;10.13;5.28;;;;;;;6.15;100.00;101898.84;5071952;28;20047;-46
2023/10/17 03:14:23;;;;;;;9.00;4.90;;;;;;;6.13;100.00;101892.78;5070252;28;20040;-46
2023/10/17 03:16:54;;;;;;;12.95;5.40;;;;;;;6.15;100.00;101893.63;5072138;28;20434;-47
2023/10/17 03:19:26;;;;;;;9.88;4.80;;;;;;;6.18;100.00;101880.47;5070512;28;20548;-47
2023/10/17 03:21:55;;;;;;;;;;;;;;;6.17;100.00;101880.50;5070352;28;20075;-47
2023/10/17 03:24:28;;;;;;;8.13;5.18;;;;;;;6.15;100.00;101885.78;5070145;28;20296;-46
2023/10/17 03:27:07;;;;;;;9.02;4.90;;;;;;;6.12;100.00;101893.69;5068130;28;20458;-47
2023/10/17 03:29:36;;;;;;;9.65;4.68;;;;;;;6.13;100.00;101892.78;5072396;28;20048;-45
2023/10/17 03:32:04;;;;;;;8.35;5.07;;;;;;;6.16;100.00;101882.28;5072949;28;20126;-46
2023/10/17 03:34:35;;;;;;;10.77;4.97;;;;;;;6.15;100.00;101884.91;5072847;28;20036;-47
2023/10/17 03:39:52;;;;;;;11.30;5.35;;;;;;;6.13;100.00;101882.34;5069741;28;20054;-47
2023/10/17 03:42:41;;;;;;;;;;;;;;;6.12;100.00;101885.00;5069014;28;20072;-46
2023/10/17 03:45:16;;;;;;;10.05;5.35;;;;;;;6.08;100.00;101885.13;5072899;28;19928;-47
2023/10/17 03:47:47;;;;;;;9.75;5.72;;;;;;;6.11;100.00;101886.78;5070620;28;20162;-47
2023/10/17 03:50:31;;;;;;;9.55;5.15;;;;;;;6.13;100.00;101890.19;5069962;28;20056;-47
2023/10/17 03:53:05;;;;;;;10.07;5.28;;;;;;;6.09;100.00;101892.06;5068713;28;20052;-48
2023/10/17 03:55:34;;;;;;;8.57;5.32;;;;;;;6.08;100.00;101892.06;5068326;28;20044;-47
2023/10/17 03:58:18;;;;;;;9.65;5.40;;;;;;;6.14;100.00;101897.13;5068321;28;20507;-46
2023/10/17 04:00:47;;;;;;;10.65;5.20;;;;;;;6.12;100.00;101903.28;5069053;28;20049;-47
2023/10/17 04:03:21;;;;;;;9.52;5.35;;;;;;;6.15;100.00;101897.97;5069591;28;20110;-47
2023/10/17 04:05:51;;;;;;;9.82;5.55;;;;;;;6.11;100.00;101896.34;5068718;28;20123;-48
2023/10/17 04:08:26;;;;;;;9.43;6.13;;;;;;;6.13;100.00;101894.56;5069225;28;20047;-49
2023/10/17 04:11:08;;;;;;;10.38;5.45;;;;;;;6.13;100.00;101892.78;5066341;28;20129;-47
2023/10/17 04:13:38;;;;;;;11.38;5.35;;;;;;;6.17;100.00;101898.78;5068728;28;20041;-46
2023/10/17 04:16:10;;;;;;;8.45;5.05;;;;;;;6.16;100.00;101892.72;5069431;28;20045;-46
2023/10/17 04:18:38;;;;;;;10.68;5.68;;;;;;;6.14;100.00;101893.66;5068695;28;20049;-49
2023/10/17 04:21:18;;;;;;;8.60;5.72;;;;;;;6.11;100.00;101899.84;5070914;28;20044;-48
2023/10/17 04:23:49;;;;;;;10.82;5.78;;;;;;;6.15;100.00;101906.69;5069447;28;20052;-48
2023/10/17 04:26:19;;;;;;;10.40;5.35;;;;;;;6.17;100.00;101904.03;5067391;28;20131;-48
2023/10/17 04:28:50;;;;;;;10.07;5.75;;;;;;;6.14;100.00;101912.81;5068116;28;20431;-47
2023/10/17 04:31:25;;;;;;;10.18;5.68;;;;;;;6.09;100.00;101915.56;5070521;28;20447;-47
2023/10/17 04:34:05;;;;;;;11.00;6.20;;;;;;;6.08;100.00;101913.84;5069358;28;20209;-46
2023/10/17 04:36:37;;;;;;;11.30;5.68;;;;;;;6.11;100.00;101915.50;5068915;28;20060;-49
2023/10/17 04:39:18;;;;;;;10.50;5.50;;;;;;;6.10;100.00;101905.94;5072055;28;20511;-48
2023/10/17 04:44:34;;;;;;;8.77;4.95;;;;;;;6.18;100.00;101892.69;5071799;28;20098;-47
2023/10/17 04:49:53;;;;;;;9.95;5.10;;;;;;;6.16;100.00;101892.72;5071668;28;20052;-48
2023/10/17 04:52:29;;;;;;;11.40;4.82;;;;;;;6.15;100.00;101885.78;5071730;28;20419;-49
2023/10/17 04:55:09;;;;;;;10.23;5.72;;;;;;;6.17;100.00;101894.41;5071736;28;20063;-47
2023/10/17 04:57:56;;;;;;;9.65;5.32;;;;;;;6.14;100.00;101891.91;5071736;28;20048;-49
2023/10/17 05:00:42;;;;;;;10.13;5.25;;;;;;;6.15;100.00;101885.78;5070238;28;20040;-48
2023/10/17 05:03:14;;;;;;;9.60;5.10;;;;;;;6.20;100.00;101896.97;5068207;28;20054;-48
2023/10/17 05:06:00;;;;;;;8.47;4.93;;;;;;;6.21;100.00;101896.03;5071249;28;20059;-50
2023/10/17 05:08:49;;;;;;;10.43;5.25;;;;;;;6.18;100.00;101900.50;5071530;28;20049;-50
2023/10/17 06:18:01;;;;;;;19.10;11.70;;;;;;;6.05;100.00;101885.22;5070962;28;20051;-47
2023/10/17 06:24:05;;;;;;;20.38;12.07;;;;;;;6.07;100.00;101890.38;5073316;28;20045;-48
2023/10/17 06:30:05;;;;;;;22.50;11.05;;;;;;;6.01;100.00;101895.78;5073140;28;20416;-47
2023/10/17 06:31:54;;;;;;;20.00;11.85;;;;;;;5.99;100.00;101887.16;5072940;28;20044;-46
2023/10/17 06:34:23;;;;;;;23.85;11.65;;;;;;;5.97;100.00;101888.91;5074206;28;20460;-50
2023/10/17 06:36:58;;;;;;;19.60;10.38;;;;;;;5.93;100.00;101894.22;5074166;28;20054;-48
2023/10/17 06:39:36;;;;;;;16.13;10.70;;;;;;;5.97;100.00;101891.50;5073978;28;20068;-48
2023/10/17 06:42:14;;;;;;;17.50;9.57;;;;;;;5.99;100.00;101890.59;5071523;28;20053;-48
2023/10/17 06:44:53;;;;;;;17.00;9.77;;;;;;;5.99;100.00;101889.75;5069088;28;20056;-50
2023/10/17 06:47:23;;;;;;;15.90;9.30;;;;;;;6.00;100.00;101897.53;5070828;28;20067;-48
2023/10/17 06:50:17;;;;;;;14.02;8.75;;;;;;;6.01;100.00;101895.78;5070253;28;20098;-49
2023/10/17 06:52:57;;;;;;;16.70;10.20;;;;;;;5.99;100.00;101898.44;5070312;28;20041;-49
2023/10/17 06:55:29;;;;;;;14.20;8.70;;;;;;;6.05;100.00;101900.00;5072457;28;20044;-47
2023/10/17 06:58:08;;;;;;;;;;;;;;;5.97;100.00;101900.22;5074433;28;20048;-46
2023/10/17 07:00:44;;;;;;;11.63;7.70;;;;;;;5.96;100.00;101900.22;5073759;28;19956;-48
2023/10/17 07:03:14;;;;;;;17.02;8.52;;;;;;;5.94;100.00;101905.50;5072460;28;20075;-48
2023/10/17 07:05:49;;;;;;;14.18;8.65;;;;;;;5.90;100.00;101902.16;5071806;28;20048;-48
2023/10/17 07:08:20;;;;;;;14.38;8.95;;;;;;;5.91;100.00;101903.84;5070436;28;20049;-48
2023/10/17 07:11:02;;;;;;;13.30;8.32;;;;;;;5.97;100.00;101908.06;5069589;28;20530;-49
2023/10/17 07:13:54;;;;;;;15.80;9.07;;;;;;;6.10;100.00;101908.56;5072024;28;20045;-48
2023/10/17 07:16:27;;;;;;;16.95;9.40;;;;;;;6.25;100.00;101909.88;5070504;28;20055;-49
2023/10/17 07:18:57;;;;;;;16.25;8.52;;;;;;;6.42;100.00;101902.38;5072338;28;20052;-48
2023/10/17 07:21:24;;;;;;;12.85;8.73;;;;;;;6.52;100.00;101902.94;5073453;28;20059;-48
2023/10/17 07:24:00;;;;;;;20.33;9.73;;;;;;;6.87;100.00;101910.56;5073250;28;20460;-48
2023/10/17 07:26:40;;;;;;;13.80;8.45;;;;;;;6.99;100.00;101909.31;5070317;28;20052;-49
2023/10/17 07:29:08;;;;;;;15.60;9.07;;;;;;;7.02;100.00;101914.44;5069468;28;20503;-48
2023/10/17 07:31:36;;;;;;;14.40;9.20;;;;;;;6.98;100.00;101907.59;5073143;28;20053;-47
2023/10/17 07:34:16;;;;;;;14.40;9.38;;;;;;;7.35;100.00;101903.72;5073160;28;20476;-49
2023/10/17 07:36:48;;;;;;;14.98;8.57;;;;;;;7.82;100.00;101906.41;5073163;28;20047;-49
2023/10/17 07:39:22;;;;;;;15.77;9.10;;;;;;;7.85;100.00;101903.69;5072492;28;20051;-45
2023/10/17 07:41:54;;;;;;;13.73;8.40;;;;;;;7.92;100.00;101901.69;5066959;28;20132;-47
2023/10/17 07:44:25;;;;;;;14.73;8.55;;;;;;;8.23;100.00;101903.16;5068623;28;20052;-47
2023/10/17 07:47:08;;;;;;;16.10;8.85;;;;;;;8.52;100.00;101906.44;5072621;28;20070;-49
2023/10/17 07:49:41;;;;;;;13.13;8.23;;;;;;;8.53;100.00;101903.75;5070361;28;20226;-48
2023/10/17 07:52:12;;;;;;;17.17;8.73;;;;;;;8.49;100.00;101899.56;5069142;28;20060;-48
2023/10/17 07:54:45;;;;;;;15.13;8.60;;;;;;;8.68;100.00;101907.53;5068665;28;20036;-48
2023/10/17 07:57:22;;;;;;;13.48;7.85;;;;;;;8.92;100.00;101904.84;5072678;28;20088;-49
2023/10/17 07:59:52;;;;;;;13.70;7.50;;;;;;;8.97;100.00;101908.13;5072506;28;20364;-50
2023/10/17 08:02:20;;;;;;;13.07;8.20;;;;;;;9.17;100.00;101907.28;5070016;28;20064;-48
2023/10/17 08:04:50;;;;;;;14.90;8.15;;;;;;;9.50;100.00;101909.38;5069360;28;20048;-50
2023/10/17 08:07:20;;;;;;;15.20;8.40;;;;;;;9.51;100.00;101913.72;5069623;28;20044;-49
2023/10/17 08:09:56;;;;;;;13.55;8.18;;;;;;;9.54;100.00;101913.56;5072604;28;20059;-49
2023/10/17 08:12:29;;;;;;;13.80;7.72;;;;;;;9.40;100.00;101915.97;5072513;28;20075;-48
2023/10/17 08:15:17;;;;;;;16.50;8.93;;;;;;;9.50;100.00;101913.78;5069167;28;20048;-48
2023/10/17 08:17:48;;;;;;;12.23;8.13;;;;;;;9.60;100.00;101913.31;5068110;28;20060;-46
2023/10/17 08:23:06;;;;;;;13.73;8.77;;;;;;;9.85;100.00;101906.97;5072860;28;20538;-48
2023/10/17 08:25:40;;;;;;;13.00;8.10;;;;;;;9.95;100.00;101900.38;5072253;28;20098;-46
2023/10/17 08:28:31;;;;;;;12.85;8.27;;;;;;;10.12;100.00;101896.97;5071851;28;20130;-48
2023/10/17 08:31:18;;;;;;;15.43;9.20;;;;;;;10.04;100.00;101895.63;5068186;28;20461;-47
2023/10/17 08:33:52;;;;;;;12.93;8.68;;;;;;;9.90;100.00;101889.22;5071037;28;20114;-48
2023/10/17 08:36:23;;;;;;;15.07;8.80;;;;;;;9.98;100.00;101892.34;5071979;28;20075;-48
2023/10/17 08:38:54;;;;;;;12.60;8.50;;;;;;;10.10;100.00;101895.31;5068164;28;20056;-48
2023/10/17 08:41:23;;;;;;;13.85;9.27;;;;;;;10.01;100.00;101891.38;5070092;28;20051;-50
2023/10/17 08:43:55;;;;;;;17.83;9.48;;;;;;;10.41;100.00;101889.50;5069493;28;20075;-49
2023/10/17 08:46:23;;;;;;;13.95;9.23;;;;;;;10.44;100.00;101889.38;5068143;28;20044;-48
2023/10/17 08:48:56;;;;;;;16.08;9.20;;;;;;;10.58;100.00;101882.56;5068130;28;20048;-49
2023/10/17 08:51:25;;;;;;;14.65;9.05;;;;;;;10.68;100.00;101883.00;5071800;28;20063;-47
2023/10/17 08:53:56;;;;;;;13.40;8.97;;;;;;;10.76;100.00;101894.84;5069236;28;20552;-48
2023/10/17 08:56:28;;;;;;;14.63;8.68;;;;;;;10.71;100.00;101903.91;5067748;28;20137;-46
2023/10/17 08:59:04;;;;;;;15.07;10.15;;;;;;;10.61;100.00;101900.88;5066499;28;20483;-45
2023/10/17 09:01:32;;;;;;;14.23;9.18;;;;;;;10.79;100.00;101894.69;5069093;28;20131;-47
2023/10/17 09:04:04;;;;;;;14.65;9.10;;;;;;;10.87;100.00;101902.22;5069727;28;20043;-49
2023/10/17 09:06:37;;;;;;;15.32;10.07;;;;;;;10.96;100.00;101904.41;5070965;28;20080;-46
2023/10/17 09:09:20;;;;;;;15.10;9.48;;;;;;;10.92;100.00;101896.72;5068657;28;20052;-50
2023/10/17 09:12:01;;;;;;;13.88;9.38;;;;;;;10.69;100.00;101908.38;5067397;28;20060;-49
2023/10/17 09:14:43;;;;;;;13.77;8.80;;;;;;;10.71;100.00;101902.09;5068198;28;20403;-48
2023/10/17 09:17:16;;;;;;;16.77;9.98;;;;;;;10.77;100.00;101911.47;5068071;28;20056;-48
2023/10/17 09:19:47;;;;;;;16.38;9.65;;;;;;;10.90;100.00;101911.75;5068585;28;20429;-48
2023/10/17 09:22:16;;;;;;;15.15;9.10;;;;;;;10.72;100.00;101913.50;5068411;28;20044;-47
2023/10/17 09:24:49;;;;;;;12.93;8.40;;;;;;;10.92;100.00;101913.38;5071441;28;20479;-48
2023/10/17 09:27:19;;;;;;;14.87;9.00;;;;;;;11.16;100.00;101918.31;5070136;28;20118;-51
2023/10/17 09:29:51;;;;;;;14.77;8.93;;;;;;;11.17;100.00;101922.66;5071279;28;21046;-49
2023/10/17 09:32:33;;;;;;;14.05;8.57;;;;;;;11.32;100.00;101918.41;5071311;28;20056;-49
2023/10/17 09:35:13;;;;;;;14.25;8.90;;;;;;;11.37;100.00;101908.50;5068180;28;20426;-48
2023/10/17 09:37:43;;;;;;;15.02;9.00;;;;;;;11.40;100.00;101907.44;5070079;28;20131;-47
2023/10/17 09:40:13;;;;;;;12.05;8.43;;;;;;;11.41;100.00;101906.53;5066915;28;20053;-50
2023/10/17 09:42:44;;;;;;;14.35;9.35;;;;;;;11.72;100.00;101915.47;5066925;28;20055;-46
2023/10/17 09:45:15;;;;;;;12.88;8.70;;;;;;;11.79;100.00;101907.16;5071123;28;20044;-48
2023/10/17 09:48:04;;;;;;;14.15;8.60;;;;;;;12.06;100.00;101909.25;5069689;28;20110;-51
2023/10/17 09:50:35;;;;;;;11.38;7.57;;;;;;;12.11;100.00;101925.69;5071370;28;20525;-47
2023/10/17 09:53:14;;;;;;;11.57;7.32;;;;;;;12.04;100.00;101924.34;5071238;28;20041;-47
2023/10/17 09:55:47;;;;;;;13.25;8.20;;;;;;;12.37;100.00;101912.03;5066858;28;20098;-46
2023/10/17 09:58:17;;;;;;;;;;;;;;;12.39;100.00;101907.50;5069426;28;20127;-49
2023/10/17 10:00:52;;;;;;;11.60;7.68;;;;;;;12.73;100.00;101918.78;5071149;28;19974;-49
2023/10/17 10:03:21;;;;;;;12.10;7.68;;;;;;;12.91;100.00;101919.50;5071378;28;20132;-50
2023/10/17 10:05:53;;;;;;;12.38;7.10;;;;;;;13.22;100.00;101926.47;5070836;28;20438;-48
2023/10/17 10:08:29;;;;;;;14.33;7.40;;;;;;;13.45;100.00;101926.94;5071020;28;20098;-51
2023/10/17 10:10:57;;;;;;;11.38;7.07;;;;;;;13.50;100.00;101922.22;5070923;28;20045;-51
2023/10/17 10:13:26;;;;;;;13.82;6.95;;;;;;;13.63;100.00;101925.84;5070949;28;20057;-49
2023/10/17 10:16:01;;;;;;;11.27;6.32;;;;;;;13.63;100.00;101931.13;5068122;28;20491;-52
2023/10/17 10:18:58;;;;;;;11.50;6.82;;;;;;;13.90;100.00;101917.13;5070572;28;20044;-51
2023/10/17 10:22:05;;;;;;;11.38;6.13;;;;;;;13.98;100.00;101924.59;5074770;28;20076;-49
2023/10/17 10:24:36;;;;;;;10.98;6.53;;;;;;;13.94;100.00;101923.09;5074424;28;20102;-49
2023/10/17 10:27:20;;;;;;;10.60;6.10;;;;;;;14.05;100.00;101914.47;5074500;28;20041;-51
2023/10/17 10:29:52;;;;;;;12.02;6.15;;;;;;;14.51;100.00;101907.09;5074358;28;20047;-51
2023/10/17 10:32:37;;;;;;;11.53;6.20;;;;;;;14.51;100.00;101900.97;5074004;28;20127;-48
2023/10/17 10:35:06;;;;;;;14.18;7.20;;;;;;;14.45;100.00;101907.50;5073601;28;20881;-50
2023/10/17 10:37:52;;;;;;;11.75;6.22;;;;;;;14.47;100.00;101894.16;5071538;28;20551;-54
2023/10/17 10:40:24;;;;;;;11.15;6.20;;;;;;;14.10;100.00;101899.19;5072348;28;20044;-47
2023/10/17 10:42:56;;;;;;;11.05;6.05;;;;;;;14.44;100.00;101889.06;5074263;28;20049;-52
2023/10/17 10:45:42;;;;;;;10.98;5.10;;;;;;;14.40;100.00;101890.19;5074203;28;20051;-53
2023/10/17 10:48:15;;;;;;;8.73;4.78;;;;;;;14.81;100.00;101891.97;5073610;28;20057;-50
2023/10/17 10:50:45;;;;;;;9.75;5.30;;;;;;;14.74;100.00;101893.31;5052023;28;20060;-53
2023/10/17 10:53:24;;;;;;;8.77;4.93;;;;;;;14.71;100.00;101886.41;5051115;28;20163;-59
2023/10/17 10:56:00;;;;;;;9.02;5.50;;;;;;;14.85;100.00;101872.28;5059545;28;20072;-49
2023/10/17 10:58:30;;;;;;;10.82;5.05;;;;;;;15.41;100.00;101872.00;5071812;28;20045;-47
2023/10/17 11:01:00;;;;;;;10.02;5.18;;;;;;;15.31;100.00;101879.75;5073795;28;20056;-56
2023/10/17 11:03:30;;;;;;;9.25;5.00;;;;;;;15.61;100.00;101870.63;5071435;28;20036;-52
2023/10/17 11:06:03;;;;;;;9.35;4.88;;;;;;;15.40;100.00;101877.41;5069403;28;20094;-48
2023/10/17 11:08:36;;;;;;;9.13;4.93;;;;;;;15.21;100.00;101862.78;5070157;28;20048;-52
2023/10/17 11:11:05;;;;;;;9.40;4.85;;;;;;;15.81;100.00;101857.78;5053947;28;20048;-56
2023/10/17 11:13:35;;;;;;;10.40;4.85;;;;;;;16.22;100.00;101848.63;5049440;28;20163;-54
2023/10/17 11:16:06;;;;;;;10.27;4.93;;;;;;;16.32;100.00;101838.16;5066304;28;20124;-47
2023/10/17 11:18:38;;;;;;;6.85;4.18;;;;;;;16.34;100.00;101836.25;5062467;28;20048;-51
2023/10/17 11:21:08;;;;;;;9.40;4.57;;;;;;;16.59;100.00;101835.28;5053085;28;20045;-53
2023/10/17 11:23:40;;;;;;;8.63;4.60;;;;;;;17.23;100.00;101834.00;5060704;28;20062;-53
2023/10/17 11:26:11;;;;;;;7.90;4.32;;;;;;;17.06;100.00;101838.81;5057030;28;20502;-53
2023/10/17 11:28:55;;;;;;;10.02;4.78;;;;;;;16.37;100.00;101833.38;5067560;28;20048;-54
2023/10/17 11:31:24;;;;;;;10.35;4.68;;;;;;;16.12;100.00;101834.34;5065825;28;20048;-55
2023/10/17 11:33:55;;;;;;;8.38;4.60;;;;;;;16.29;100.00;101815.38;5060491;28;20046;-50
2023/10/17 11:36:24;;;;;;;7.45;4.38;;;;;;;16.21;100.00;101825.69;5060529;28;20502;-54
2023/10/17 11:38:56;;;;;;;9.75;4.40;;;;;;;16.20;100.00;101824.03;5067848;28;20040;-56
2023/10/17 11:41:29;;;;;;;9.48;4.70;;;;;;;16.58;100.00;101817.66;5065858;28;20037;-60
2023/10/17 11:44:04;;;;;;;10.80;4.30;;;;;;;16.48;100.00;101814.00;5054097;28;20052;-54
2023/10/17 11:46:33;;;;;;;7.68;4.07;;;;;;;16.50;100.00;101809.44;5055331;28;20048;-55
2023/10/17 11:49:26;;;;;;;8.15;3.88;;;;;;;16.87;100.00;101803.97;5052302;28;20392;-54
2023/10/17 11:52:00;;;;;;;7.25;3.95;;;;;;;17.49;99.46;101797.41;5067009;28;20369;-49
2023/10/17 11:54:29;;;;;;;10.82;4.18;;;;;;;17.71;98.23;101800.97;5053435;28;20118;-57
2023/10/17 11:57:13;;;;;;;8.27;4.00;;;;;;;17.73;98.40;101793.75;5060859;28;20049;-52
2023/10/17 12:00:01;;;;;;;9.63;3.83;;;;;;;17.55;97.62;101785.44;5061744;28;20191;-52
2023/10/17 12:02:29;;;;;;;7.63;3.42;;;;;;;17.65;92.19;101782.88;5069684;28;20135;-53
2023/10/17 12:05:03;;;;;;;9.80;3.42;;;;;;;17.20;95.97;101786.41;5069273;28;20058;-54
2023/10/17 12:07:31;;;;;;;6.95;3.25;;;;;;;17.00;95.40;101783.50;5067203;28;20053;-49
2023/10/17 12:10:04;;;;;;;8.00;3.13;;;;;;;17.06;97.13;101777.69;5057751;28;20048;-55
2023/10/17 12:12:35;;;;;;;10.18;3.58;;;;;;;17.11;95.61;101777.34;5056341;28;20127;-56
2023/10/17 12:15:05;;;;;;;6.55;3.25;;;;;;;17.14;94.47;101789.53;5051734;28;20057;-54
2023/10/17 12:17:33;;;;;;;6.38;2.97;;;;;;;17.46;94.01;101786.16;5061376;28;20055;-48
2023/10/17 12:20:10;;;;;;;7.10;2.97;;;;;;;17.89;93.70;101782.72;5070405;28;20048;-59
2023/10/17 12:22:39;;;;;;;6.13;3.08;;;;;;;17.89;91.06;101783.53;5072228;28;20052;-49
2023/10/17 12:25:09;;;;;;;5.97;2.67;;;;;;;18.06;87.97;101787.53;5065760;28;20041;-53
2023/10/17 12:27:39;;;;;;;6.80;3.10;;;;;;;17.95;88.77;101787.53;5057592;28;20051;-56
2023/10/17 12:30:10;;;;;;;6.15;2.75;;;;;;;17.65;92.22;101788.19;5055134;28;20757;-46
2023/10/17 12:32:38;;;;;;;6.15;2.80;;;;;;;17.51;90.01;101778.66;5068093;28;20048;-62
2023/10/17 12:35:12;;;;;;;6.32;2.60;;;;;;;17.58;88.79;101767.38;5062769;28;20131;-62
2023/10/17 12:37:44;;;;;;;7.30;3.10;;;;;;;17.42;90.20;101753.63;5049391;28;20391;-53
2023/10/17 12:40:18;;;;;;;8.35;2.92;;;;;;;17.58;90.58;101754.09;5057672;28;20285;-58
2023/10/17 12:42:47;;;;;;;7.15;2.60;;;;;;;18.13;89.93;101737.25;5060265;28;20036;-57
2023/10/17 12:45:17;;;;;;;5.28;2.53;;;;;;;18.13;89.00;101736.44;5061942;28;20052;-60
2023/10/17 12:47:46;;;;;;;5.80;2.65;;;;;;;17.88;87.64;101733.13;5065575;28;20144;-60
2023/10/17 12:50:18;;;;;;;6.65;2.42;;;;;;;17.55;87.55;101724.25;5068749;28;20395;-60
2023/10/17 12:52:47;;;;;;;5.72;2.67;;;;;;;17.37;90.54;101734.56;5071231;28;20048;-59
2023/10/17 12:55:15;;;;;;;6.82;2.70;;;;;;;17.04;90.50;101723.84;5067759;28;20072;-59
2023/10/17 12:57:43;;;;;;;5.55;2.45;;;;;;;17.19;89.42;101712.94;5060902;28;20158;-59
2023/10/17 13:00:14;;;;;;;5.03;2.45;;;;;;;17.55;90.00;101708.31;5066199;28;20559;-58
2023/10/17 13:02:42;;;;;;;6.43;2.58;;;;;;;17.39;87.65;101701.56;5050606;28;20045;-55
2023/10/17 13:05:15;;;;;;;8.73;2.88;;;;;;;17.40;90.40;101689.13;5063305;28;20039;-61
2023/10/17 13:07:44;;;;;;;7.72;2.72;;;;;;;17.66;89.19;101688.81;5071394;28;20082;-60
2023/10/17 13:10:12;;;;;;;4.80;2.20;;;;;;;17.64;89.42;101690.75;5068947;28;20054;-58
2023/10/17 13:12:40;;;;;;;7.40;2.35;;;;;;;17.77;88.93;101687.94;5054181;28;20396;-56